createdAt,value
2018-12-07T00:11:44.476Z,24.07
2018-12-07T00:25:00.608Z,26.40
2018-12-07T00:36:12.687Z,25.97
2018-12-07T00:38:41.297Z,23.07
2018-12-07T00:41:09.960Z,23.17
2018-12-07T00:43:38.849Z,25.43
2018-12-07T00:46:07.860Z,21.13
2018-12-07T00:48:36.930Z,22.90
2018-12-07T00:51:05.835Z,21.30
2018-12-07T00:53:34.499Z,21.67
2018-12-07T00:56:03.100Z,24.80
2018-12-07T00:58:32.101Z,22.07
2018-12-07T01:01:00.689Z,20.40
2018-12-07T01:03:29.963Z,18.03
2018-12-07T03:04:44.325Z,21.60
2018-12-07T03:16:19.649Z,23.27
2018-12-07T03:22:03.827Z,23.47
2018-12-07T03:24:53.546Z,22.33
2018-12-07T03:30:13.030Z,25.20
2018-12-07T03:33:55.961Z,19.50
2018-12-07T03:37:04.669Z,22.97
2018-12-07T03:39:52.951Z,23.37
2018-12-07T03:52:06.314Z,21.23
2018-12-07T03:54:35.010Z,22.97
2018-12-07T03:59:31.476Z,21.90
2018-12-07T04:02:00.222Z,21.50
2018-12-07T04:04:28.690Z,22.33
2018-12-07T04:06:57.391Z,21.20
2018-12-07T04:09:27.353Z,25.77
2018-12-07T04:11:55.769Z,19.80
2018-12-07T04:14:24.575Z,22.10
2018-12-07T04:16:53.337Z,22.97
2018-12-07T04:19:21.867Z,23.53
2018-12-07T04:21:50.211Z,22.87
2018-12-07T04:24:19.205Z,20.30
2018-12-07T04:26:47.892Z,21.17
2018-12-07T04:29:16.564Z,20.77
2018-12-07T04:31:44.950Z,19.70
2018-12-07T04:34:13.687Z,26.00
2018-12-07T04:36:42.203Z,20.53
2018-12-07T04:39:10.746Z,22.47
2018-12-07T04:41:39.724Z,20.43
2018-12-07T04:44:08.155Z,21.87
2018-12-07T04:46:36.557Z,24.77
2018-12-07T04:49:04.958Z,19.80
2018-12-07T04:51:33.682Z,21.63
2018-12-07T04:54:02.204Z,22.13
2018-12-07T04:56:30.678Z,21.50
2018-12-07T04:58:59.084Z,20.57
2018-12-07T05:01:27.841Z,21.93
2018-12-07T05:03:56.127Z,23.70
2018-12-07T05:06:24.661Z,21.30
2018-12-07T05:08:53.035Z,24.53
2018-12-07T05:11:21.404Z,26.50
2018-12-07T05:14:11.743Z,26.13
2018-12-07T05:16:40.015Z,27.10
2018-12-07T05:19:08.665Z,29.63
2018-12-07T05:21:37.081Z,29.37
2018-12-07T05:24:05.444Z,28.57
2018-12-07T05:26:53.300Z,30.80
2018-12-07T05:29:21.584Z,33.53
2018-12-07T05:31:49.845Z,30.77
2018-12-07T05:34:18.250Z,33.83
2018-12-07T05:36:46.896Z,31.63
2018-12-07T05:39:15.255Z,43.07
2018-12-07T05:41:43.687Z,31.93
2018-12-07T05:44:12.142Z,32.23
2018-12-07T05:51:43.726Z,30.13
2018-12-07T05:54:12.110Z,31.00
2018-12-07T05:56:40.535Z,30.53
2018-12-07T05:59:08.819Z,27.73
2018-12-07T06:01:37.196Z,28.97
2018-12-07T06:04:05.502Z,31.03
2018-12-07T06:06:34.195Z,30.00
2018-12-07T06:09:23.842Z,25.10
2018-12-07T06:11:52.594Z,27.23
2018-12-07T06:14:21.013Z,25.33
2018-12-07T06:16:50.064Z,26.80
2018-12-07T06:19:18.548Z,25.63
2018-12-07T06:21:47.337Z,23.47
2018-12-07T06:24:15.764Z,24.83
2018-12-07T06:26:44.221Z,25.57
2018-12-07T06:29:12.625Z,23.27
2018-12-07T06:31:41.456Z,23.97
2018-12-07T06:34:09.934Z,24.63
2018-12-07T06:36:38.362Z,23.23
2018-12-07T06:39:09.587Z,22.33
2018-12-07T06:41:38.074Z,25.53
2018-12-07T06:44:06.322Z,22.93
2018-12-07T06:46:35.072Z,25.53
2018-12-07T06:49:22.498Z,27.10
2018-12-07T06:51:50.795Z,22.70
2018-12-07T06:54:19.071Z,26.90
2018-12-07T06:56:47.701Z,25.17
2018-12-07T06:59:15.954Z,24.57
2018-12-07T07:01:44.360Z,25.97
2018-12-07T07:04:12.808Z,21.80
2018-12-07T07:06:41.095Z,24.67
2018-12-07T07:09:09.605Z,21.83
2018-12-07T07:11:37.958Z,22.97
2018-12-07T07:14:06.237Z,22.37
2018-12-07T07:16:34.610Z,23.30
2018-12-07T07:19:03.139Z,22.27
2018-12-07T07:21:31.514Z,21.40
2018-12-07T07:23:59.904Z,22.33
2018-12-07T07:26:28.706Z,21.20
2018-12-07T07:28:57.105Z,19.03
2018-12-07T07:31:25.686Z,19.60
2018-12-07T07:33:54.450Z,16.47
2018-12-07T07:36:23.184Z,18.80
2018-12-07T07:38:51.575Z,19.30
2018-12-07T07:41:20.270Z,17.77
2018-12-07T07:43:48.670Z,14.93
2018-12-07T07:46:17.035Z,17.80
2018-12-07T07:48:45.477Z,14.73
2018-12-07T07:56:15.416Z,14.17
2018-12-07T08:03:39.089Z,14.93
2018-12-07T08:18:55.706Z,13.20
2018-12-07T08:21:24.191Z,10.87
2018-12-07T08:23:52.617Z,12.97
2018-12-07T08:26:21.175Z,10.27
2018-12-07T08:28:49.910Z,10.47
2018-12-07T08:31:19.103Z,9.30
2018-12-07T08:33:47.704Z,8.63
2018-12-07T08:36:16.082Z,8.70
2018-12-07T08:38:44.693Z,10.63
2018-12-07T08:41:13.131Z,9.67
2018-12-07T08:44:01.189Z,7.67
2018-12-07T08:46:29.762Z,8.40
2018-12-07T08:48:58.170Z,7.17
2018-12-07T08:51:26.683Z,7.87
2018-12-07T08:53:55.077Z,5.47
2018-12-07T08:56:23.969Z,6.30
2018-12-07T08:58:52.335Z,6.60
2018-12-07T09:01:20.785Z,5.90
2018-12-07T09:03:49.164Z,7.90
2018-12-07T09:06:17.704Z,7.53
2018-12-07T09:08:47.316Z,8.70
2018-12-07T09:11:15.779Z,7.70
2018-12-07T09:13:44.171Z,6.80
2018-12-07T09:16:12.783Z,7.73
2018-12-07T09:18:41.260Z,6.83
2018-12-07T09:21:09.646Z,5.90
2018-12-07T09:23:38.076Z,7.57
2018-12-07T09:26:06.456Z,6.53
2018-12-07T09:28:35.151Z,5.97
2018-12-07T09:31:22.614Z,5.80
2018-12-07T09:33:51.244Z,4.97
2018-12-07T09:36:19.625Z,4.40
2018-12-07T09:38:48.093Z,4.70
2018-12-07T09:41:16.385Z,4.63
2018-12-07T09:43:44.681Z,5.77
2018-12-07T09:46:13.139Z,6.33
2018-12-07T09:48:43.150Z,3.63
2018-12-07T09:51:11.707Z,3.37
2018-12-07T09:53:40.427Z,3.87
2018-12-07T09:56:08.820Z,4.47
2018-12-07T09:58:37.109Z,3.83
2018-12-07T10:01:05.834Z,3.87
2018-12-07T10:06:44.858Z,5.10
2018-12-07T10:09:12.005Z,3.73
2018-12-07T10:11:39.260Z,3.80
2018-12-07T10:14:06.425Z,4.83
2018-12-07T10:16:34.709Z,5.13
2018-12-07T10:19:01.926Z,4.37
2018-12-07T10:21:29.174Z,3.10
2018-12-07T10:23:56.343Z,3.10
2018-12-07T10:26:23.483Z,3.20
2018-12-07T10:28:51.664Z,3.90
2018-12-07T10:31:18.883Z,4.47
2018-12-07T10:33:46.069Z,4.00
2018-12-07T10:36:13.264Z,3.87
2018-12-07T10:38:40.444Z,3.43
2018-12-07T10:41:07.593Z,5.33
2018-12-07T10:43:34.996Z,4.20
2018-12-07T10:46:02.189Z,4.33
2018-12-07T10:48:29.354Z,3.80
2018-12-07T10:50:56.579Z,3.87
2018-12-07T10:53:23.756Z,5.87
2018-12-07T10:55:50.992Z,3.53
2018-12-07T10:58:18.241Z,3.53
2018-12-07T11:00:51.529Z,2.57
2018-12-07T11:03:25.608Z,4.27
2018-12-07T11:05:58.451Z,3.67
2018-12-07T11:08:34.949Z,3.73
2018-12-07T11:11:07.858Z,2.80
2018-12-07T11:13:40.239Z,3.07
2018-12-07T11:16:14.002Z,2.90
2018-12-07T11:18:47.262Z,3.13
2018-12-07T11:21:21.046Z,2.30
2018-12-07T11:23:53.832Z,3.63
2018-12-07T11:26:27.367Z,2.47
2018-12-07T11:29:00.313Z,2.60
2018-12-07T11:31:33.137Z,2.33
2018-12-07T11:34:11.859Z,3.03
2018-12-07T11:36:39.173Z,2.00
2018-12-07T11:39:09.023Z,1.97
2018-12-07T11:41:36.320Z,2.10
2018-12-07T11:44:03.606Z,3.20
2018-12-07T11:46:30.740Z,2.30
2018-12-07T11:48:58.095Z,1.80
2018-12-07T11:51:25.264Z,1.93
2018-12-07T11:53:52.399Z,2.07
2018-12-07T11:56:20.468Z,1.80
2018-12-07T11:58:47.632Z,2.03
2018-12-07T12:01:14.857Z,2.50
2018-12-07T12:03:42.034Z,2.07
2018-12-07T12:06:09.165Z,1.93
2018-12-07T12:08:36.883Z,1.90
2018-12-07T12:11:04.128Z,2.27
2018-12-07T12:13:31.322Z,2.70
2018-12-07T12:15:58.482Z,2.07
2018-12-07T12:18:25.719Z,2.83
2018-12-07T12:20:52.893Z,2.90
2018-12-07T12:23:20.064Z,3.00
2018-12-07T12:25:47.336Z,3.00
2018-12-07T12:28:14.503Z,2.03
2018-12-07T12:30:41.755Z,3.40
2018-12-07T12:33:08.951Z,9.57
2018-12-07T12:35:36.161Z,4.13
2018-12-07T12:38:03.296Z,2.47
2018-12-07T12:40:30.606Z,2.17
2018-12-07T12:42:57.845Z,2.17
2018-12-07T12:45:24.958Z,1.70
2018-12-07T12:47:52.243Z,3.40
2018-12-07T12:50:25.130Z,2.67
2018-12-07T12:52:52.472Z,2.00
2018-12-07T12:55:19.677Z,2.23
2018-12-07T12:57:46.816Z,3.50
2018-12-07T13:00:14.000Z,2.43
2018-12-07T13:02:41.135Z,2.60
2018-12-07T13:05:08.299Z,2.37
2018-12-07T13:07:35.524Z,4.90
2018-12-07T13:10:02.934Z,3.40
2018-12-07T13:12:30.093Z,4.33
2018-12-07T13:14:57.270Z,4.33
2018-12-07T13:17:24.460Z,3.70
2018-12-07T13:19:51.591Z,3.37
2018-12-07T13:22:18.827Z,3.87
2018-12-07T13:24:45.979Z,4.10
2018-12-07T13:27:13.148Z,4.27
2018-12-07T13:29:40.353Z,5.13
2018-12-07T13:32:07.626Z,4.70
2018-12-07T13:34:34.944Z,8.77
2018-12-07T13:37:02.180Z,5.37
2018-12-07T13:39:29.411Z,5.40
2018-12-07T13:41:56.660Z,6.17
2018-12-07T13:44:24.079Z,7.70
2018-12-07T13:47:03.484Z,5.60
2018-12-07T13:49:30.800Z,6.33
2018-12-07T13:51:58.477Z,5.40
2018-12-07T13:54:25.729Z,6.17
2018-12-07T13:56:53.176Z,6.07
2018-12-07T13:59:20.490Z,5.90
2018-12-07T14:01:47.737Z,5.87
2018-12-07T14:04:15.031Z,6.00
2018-12-07T14:06:42.473Z,7.20
2018-12-07T14:09:09.686Z,6.23
2018-12-07T14:11:37.177Z,5.73
2018-12-07T14:14:04.755Z,5.53
2018-12-07T14:16:32.140Z,6.33
2018-12-07T14:18:59.618Z,5.60
2018-12-07T14:21:26.845Z,5.47
2018-12-07T14:23:54.061Z,5.67
2018-12-07T14:26:21.329Z,6.13
2018-12-07T14:28:48.582Z,6.97
2018-12-07T14:31:15.941Z,7.37
2018-12-07T14:33:43.424Z,6.90
2018-12-07T14:36:10.707Z,8.10
2018-12-07T14:38:38.079Z,7.23
2018-12-07T14:41:05.479Z,8.07
2018-12-07T14:43:33.720Z,9.53
2018-12-07T14:46:01.124Z,8.33
2018-12-07T14:48:28.415Z,9.10
2018-12-07T14:50:55.724Z,10.80
2018-12-07T14:53:22.927Z,9.90
2018-12-07T14:55:50.213Z,10.30
2018-12-07T14:58:17.603Z,9.53
2018-12-07T15:00:45.000Z,9.73
2018-12-07T15:03:12.329Z,9.40
2018-12-07T15:05:39.704Z,9.40
2018-12-07T15:08:07.007Z,9.17
2018-12-07T15:10:36.538Z,11.40
2018-12-07T15:13:04.110Z,9.77
2018-12-07T15:15:31.761Z,8.67
2018-12-07T15:17:59.234Z,10.00
2018-12-07T15:20:26.545Z,8.63
2018-12-07T15:22:54.003Z,8.47
2018-12-07T15:25:21.422Z,10.10
2018-12-07T15:27:48.920Z,10.93
2018-12-07T15:30:16.443Z,8.73
2018-12-07T15:32:43.784Z,10.10
2018-12-07T15:35:11.233Z,8.90
2018-12-07T15:37:38.861Z,9.27
2018-12-07T15:40:08.461Z,9.13
2018-12-07T15:42:36.000Z,8.47
2018-12-07T15:45:04.626Z,9.50
2018-12-07T15:47:32.200Z,7.80
2018-12-07T15:49:59.561Z,7.27
2018-12-07T15:52:26.975Z,6.63
2018-12-07T15:54:54.357Z,8.70
2018-12-07T15:57:21.596Z,7.10
2018-12-07T15:59:48.774Z,6.43
2018-12-07T16:02:16.171Z,6.17
2018-12-07T16:04:43.791Z,7.53
2018-12-07T16:07:10.930Z,6.57
2018-12-07T16:09:38.267Z,6.47
2018-12-07T16:12:05.690Z,7.67
2018-12-07T16:14:33.007Z,7.80
2018-12-07T16:17:00.449Z,6.23
2018-12-07T16:19:28.023Z,7.20
2018-12-07T16:21:55.338Z,6.70
2018-12-07T16:24:22.795Z,6.53
2018-12-07T16:26:50.131Z,7.67
2018-12-07T16:29:17.408Z,8.60
2018-12-07T16:31:44.795Z,8.00
2018-12-07T16:34:12.120Z,10.90
2018-12-07T16:36:39.552Z,10.00
2018-12-07T16:39:07.696Z,9.07
2018-12-07T16:41:35.102Z,9.63
2018-12-07T16:44:02.454Z,9.87
2018-12-07T16:46:30.827Z,9.93
2018-12-07T16:48:58.368Z,9.83
2018-12-07T16:51:25.817Z,9.80
2018-12-07T16:53:53.794Z,10.73
2018-12-07T16:56:21.362Z,9.67
2018-12-07T16:58:48.966Z,10.53
2018-12-07T17:01:16.511Z,9.57
2018-12-07T17:03:43.978Z,10.30
2018-12-07T17:06:11.402Z,10.27
2018-12-07T17:08:38.885Z,9.57
2018-12-07T17:11:06.347Z,9.53
2018-12-07T17:13:33.595Z,9.70
2018-12-07T17:16:00.818Z,10.53
2018-12-07T17:18:28.434Z,9.50
2018-12-07T17:20:55.752Z,8.33
2018-12-07T17:23:22.948Z,8.87
2018-12-07T17:25:50.270Z,8.47
2018-12-07T17:28:18.568Z,9.33
2018-12-07T17:30:45.747Z,12.03
2018-12-07T17:33:13.097Z,9.33
2018-12-07T17:35:40.560Z,8.63
2018-12-07T17:38:08.159Z,14.10
2018-12-07T17:40:35.279Z,9.43
2018-12-07T17:43:04.682Z,8.87
2018-12-07T17:45:32.265Z,11.23
2018-12-07T17:47:59.718Z,10.97
2018-12-07T17:50:27.131Z,15.67
2018-12-07T17:52:54.570Z,9.40
2018-12-07T17:55:21.930Z,10.73
2018-12-07T17:57:50.476Z,12.73
2018-12-07T18:00:17.925Z,10.57
2018-12-07T18:02:45.118Z,11.10
2018-12-07T18:05:12.412Z,10.47
2018-12-07T18:07:39.884Z,9.23
2018-12-07T18:10:08.295Z,8.83
2018-12-07T18:12:35.719Z,14.13
2018-12-07T18:15:03.564Z,12.03
2018-12-07T18:17:30.750Z,11.20
2018-12-07T18:19:58.053Z,10.73
2018-12-07T18:22:26.258Z,13.83
2018-12-07T18:24:53.583Z,12.47
2018-12-07T18:27:20.966Z,10.83
2018-12-07T18:29:48.236Z,11.43
2018-12-07T18:32:15.451Z,12.63
2018-12-07T18:34:42.671Z,10.63
2018-12-07T18:37:10.347Z,11.30
2018-12-07T18:39:37.684Z,14.23
2018-12-07T18:42:05.144Z,11.23
2018-12-07T18:44:32.445Z,12.60
2018-12-07T18:46:59.863Z,10.23
2018-12-07T18:49:27.221Z,10.37
2018-12-07T18:51:54.654Z,9.73
2018-12-07T18:54:22.085Z,11.70
2018-12-07T18:56:49.489Z,10.37
2018-12-07T18:59:17.170Z,12.40
2018-12-07T19:01:44.568Z,9.53
2018-12-07T19:04:11.984Z,9.87
2018-12-07T19:06:39.391Z,9.67
2018-12-07T19:09:08.453Z,7.83
2018-12-07T19:11:35.766Z,9.83
2018-12-07T19:14:03.336Z,8.83
2018-12-07T19:16:30.727Z,10.77
2018-12-07T19:18:58.043Z,9.70
2018-12-07T19:21:25.261Z,11.57
2018-12-07T19:23:52.517Z,8.00
2018-12-07T19:26:19.948Z,9.87
2018-12-07T19:28:47.242Z,8.77
2018-12-07T19:31:14.651Z,8.00
2018-12-07T19:33:42.043Z,10.13
2018-12-07T19:36:09.600Z,8.23
2018-12-07T19:38:36.957Z,8.03
2018-12-07T19:41:04.125Z,7.87
2018-12-07T19:43:31.578Z,8.57
2018-12-07T19:45:58.842Z,10.10
2018-12-07T19:48:26.123Z,11.13
2018-12-07T19:50:53.673Z,7.43
2018-12-07T19:53:21.171Z,7.10
2018-12-07T19:55:48.582Z,7.33
2018-12-07T19:58:15.919Z,9.00
2018-12-07T20:00:43.534Z,6.20
2018-12-07T20:03:11.047Z,7.60
2018-12-07T20:05:38.505Z,7.47
2018-12-07T20:08:05.866Z,8.10
2018-12-07T20:10:33.769Z,6.67
2018-12-07T20:13:02.035Z,6.80
2018-12-07T20:15:29.305Z,4.97
2018-12-07T20:17:56.699Z,5.67
2018-12-07T20:20:24.272Z,6.17
2018-12-07T20:22:52.065Z,4.20
2018-12-07T20:25:19.292Z,5.27
2018-12-07T20:27:46.639Z,4.53
2018-12-07T20:30:14.019Z,5.13
2018-12-07T20:32:43.066Z,5.50
2018-12-07T20:35:10.655Z,4.43
2018-12-07T20:37:37.979Z,4.63
2018-12-07T20:40:05.586Z,4.30
2018-12-07T20:42:36.927Z,4.73
2018-12-07T20:45:04.620Z,3.27
2018-12-07T20:47:31.908Z,3.87
2018-12-07T20:49:59.645Z,3.50
2018-12-07T20:52:27.051Z,4.33
2018-12-07T20:54:54.641Z,2.87
2018-12-07T20:57:23.268Z,3.67
2018-12-07T20:59:50.773Z,2.93
2018-12-07T21:02:18.275Z,3.03
2018-12-07T21:04:45.624Z,3.07
2018-12-07T21:07:44.606Z,3.20
2018-12-07T21:10:38.483Z,3.30
2018-12-07T21:13:27.915Z,3.37
2018-12-07T21:15:55.435Z,4.13
2018-12-07T21:18:22.622Z,3.30
2018-12-07T21:20:50.090Z,4.20
2018-12-07T21:23:17.482Z,3.50
2018-12-07T21:25:44.692Z,3.37
2018-12-07T21:28:11.824Z,4.53
2018-12-07T21:30:49.033Z,4.90
2018-12-07T21:33:22.519Z,4.20
2018-12-07T21:36:07.466Z,2.97
2018-12-07T21:38:35.095Z,3.40
2018-12-07T21:41:03.169Z,3.10
2018-12-07T21:43:31.614Z,3.07
2018-12-07T21:46:00.259Z,2.87
2018-12-07T21:48:29.285Z,4.23
2018-12-07T21:51:20.223Z,3.23
2018-12-07T21:53:47.528Z,3.90
2018-12-07T21:56:14.881Z,5.67
2018-12-07T21:58:42.212Z,4.10
2018-12-07T22:01:09.482Z,4.33
2018-12-07T22:03:36.879Z,4.07
2018-12-07T22:06:04.193Z,2.93
2018-12-07T22:08:31.436Z,2.97
2018-12-07T22:10:58.876Z,2.87
2018-12-07T22:13:26.408Z,3.87
2018-12-07T22:15:53.606Z,2.47
2018-12-07T22:18:21.115Z,3.30
2018-12-07T22:20:48.651Z,3.00
2018-12-07T22:23:15.899Z,2.30
2018-12-07T22:25:43.131Z,2.13
2018-12-07T22:28:10.609Z,1.87
2018-12-07T22:30:38.234Z,2.47
2018-12-07T22:33:05.806Z,2.83
2018-12-07T22:35:33.696Z,1.50
2018-12-07T22:38:01.160Z,1.33
2018-12-07T22:40:28.501Z,2.60
2018-12-07T22:42:55.977Z,1.30
2018-12-07T22:45:23.228Z,1.40
2018-12-07T22:47:50.665Z,1.83
2018-12-07T22:50:18.069Z,2.97
2018-12-07T22:52:45.221Z,1.93
2018-12-07T22:55:12.483Z,1.73
2018-12-07T22:57:39.739Z,1.90
2018-12-07T23:00:08.219Z,1.80
2018-12-07T23:02:35.588Z,1.13
2018-12-07T23:05:03.040Z,2.03
2018-12-07T23:07:30.205Z,1.93
2018-12-07T23:09:57.375Z,1.30
2018-12-07T23:12:24.584Z,1.30
2018-12-07T23:14:51.863Z,1.63
2018-12-07T23:17:19.145Z,1.20
2018-12-07T23:19:46.359Z,1.10
2018-12-07T23:22:13.539Z,1.40
2018-12-07T23:24:40.720Z,1.43
2018-12-07T23:27:07.948Z,1.37
2018-12-07T23:29:35.122Z,1.73
2018-12-07T23:32:02.288Z,1.13
2018-12-07T23:34:29.522Z,1.53
2018-12-07T23:36:56.773Z,1.10
2018-12-07T23:39:23.949Z,1.20
2018-12-07T23:41:51.196Z,2.50
2018-12-07T23:44:18.363Z,1.37
2018-12-07T23:46:45.532Z,1.10
2018-12-07T23:49:12.762Z,1.20
2018-12-07T23:51:39.978Z,1.40
2018-12-07T23:54:07.305Z,1.63
2018-12-07T23:56:34.530Z,1.17
2018-12-07T23:59:01.659Z,1.20
